Time;durP1;ratioP1;P1;durP2;ratioP2;P2;SDS_P1;SDS_P2;PMS_P1;PMS_P2;Temp;Humidity;BMP_temperature;BMP_pressure;BME280_temperature;BME280_humidity;BME280_pressure;Samples;Min_cycle;Max_cycle;Signal;HPM_P1;HPM_P2
2021/09/10 00:00:22;;;;;;;10.23;9.40;;;;;;;;;;5095294;28;20368;-70
2021/09/10 00:02:48;;;;;;;11.60;10.43;;;;;;;;;;5090655;28;20090;-68
2021/09/10 00:05:14;;;;;;;11.57;10.48;;;;;;;;;;5088249;28;20058;-67
2021/09/10 00:07:41;;;;;;;11.73;10.63;;;;;;;;;;5089580;28;20463;-68
2021/09/10 00:10:07;;;;;;;11.93;10.73;;;;;;;;;;5088227;28;20036;-67
2021/09/10 00:12:33;;;;;;;11.15;10.00;;;;;;;;;;5093494;28;20032;-71
2021/09/10 00:15:00;;;;;;;11.50;10.43;;;;;;;;;;5096413;28;20527;-68
2021/09/10 00:17:26;;;;;;;11.90;10.77;;;;;;;;;;5090153;28;20093;-68
2021/09/10 00:19:52;;;;;;;14.07;11.20;;;;;;;;;;5090207;28;20115;-67
2021/09/10 00:22:18;;;;;;;11.43;10.35;;;;;;;;;;5093278;28;20045;-74
2021/09/10 00:24:44;;;;;;;12.25;10.95;;;;;;;;;;5088359;28;20024;-74
2021/09/10 00:27:10;;;;;;;12.43;11.23;;;;;;;;;;5090048;28;20065;-69
2021/09/10 00:29:37;;;;;;;11.48;10.43;;;;;;;;;;5091470;28;20453;-68
2021/09/10 00:32:03;;;;;;;11.48;10.30;;;;;;;;;;5089614;28;20021;-74
2021/09/10 00:34:29;;;;;;;12.27;11.07;;;;;;;;;;5094662;28;20118;-76
2021/09/10 00:36:55;;;;;;;12.05;10.85;;;;;;;;;;5092088;28;20032;-72
2021/09/10 00:39:22;;;;;;;11.65;10.55;;;;;;;;;;5098741;28;20101;-71
2021/09/10 00:41:48;;;;;;;11.65;10.52;;;;;;;;;;5092078;28;20056;-69
2021/09/10 00:44:15;;;;;;;11.05;9.95;;;;;;;;;;5094135;28;20024;-68
2021/09/10 00:46:42;;;;;;;11.25;10.25;;;;;;;;;;5096913;28;20606;-68
2021/09/10 00:49:08;;;;;;;11.70;10.60;;;;;;;;;;5095643;28;20039;-68
2021/09/10 00:51:35;;;;;;;11.43;10.32;;;;;;;;;;5093797;28;20016;-74
2021/09/10 00:54:01;;;;;;;11.35;10.35;;;;;;;;;;5091236;28;20031;-68
2021/09/10 00:56:27;;;;;;;11.45;10.27;;;;;;;;;;5089080;28;20024;-68
2021/09/10 00:58:57;;;;;;;12.50;11.15;;;;;;;;;;5091108;28;20031;-67
2021/09/10 01:01:23;;;;;;;13.48;10.68;;;;;;;;;;5091633;28;20031;-68
2021/09/10 01:03:49;;;;;;;12.43;11.23;;;;;;;;;;5092425;28;20016;-68
2021/09/10 01:06:16;;;;;;;12.00;10.80;;;;;;;;;;5096706;28;20028;-70
2021/09/10 01:08:43;;;;;;;14.10;11.00;;;;;;;;;;5095244;28;20024;-67
2021/09/10 01:11:09;;;;;;;13.20;11.70;;;;;;;;;;5090848;28;20052;-68
2021/09/10 01:13:36;;;;;;;12.98;11.60;;;;;;;;;;5094776;28;20032;-74
2021/09/10 01:16:02;;;;;;;12.73;11.43;;;;;;;;;;5097455;28;20208;-68
2021/09/10 01:18:28;;;;;;;12.23;11.05;;;;;;;;;;5099787;28;20024;-74
2021/09/10 01:20:54;;;;;;;14.32;11.40;;;;;;;;;;5076567;28;20024;-68
2021/09/10 01:23:20;;;;;;;12.10;10.90;;;;;;;;;;5099366;28;20032;-67
2021/09/10 01:25:47;;;;;;;12.52;11.35;;;;;;;;;;5092794;28;20020;-68
2021/09/10 01:28:15;;;;;;;11.93;10.10;;;;;;;;;;5092792;28;20023;-68
2021/09/10 01:30:42;;;;;;;11.60;10.50;;;;;;;;;;5097615;28;20034;-68
2021/09/10 01:33:09;;;;;;;12.15;10.88;;;;;;;;;;5080005;28;20023;-71
2021/09/10 01:35:36;;;;;;;12.52;9.63;;;;;;;;;;5092575;28;20035;-68
2021/09/10 01:38:02;;;;;;;10.60;9.60;;;;;;;;;;5091517;28;20027;-74
2021/09/10 01:40:29;;;;;;;10.45;9.35;;;;;;;;;;5095490;28;20035;-68
2021/09/10 01:42:55;;;;;;;9.90;9.00;;;;;;;;;;5093158;28;20015;-68
2021/09/10 01:45:22;;;;;;;10.30;8.88;;;;;;;;;;5091127;28;20032;-73
2021/09/10 01:47:48;;;;;;;9.40;8.60;;;;;;;;;;5095916;28;20112;-74
2021/09/10 01:50:18;;;;;;;12.73;8.48;;;;;;;;;;5096764;28;20020;-68
2021/09/10 01:52:44;;;;;;;9.85;8.85;;;;;;;;;;5094754;28;20471;-68
2021/09/10 01:55:12;;;;;;;9.70;8.48;;;;;;;;;;5096185;28;20020;-67
2021/09/10 01:57:38;;;;;;;10.05;9.02;;;;;;;;;;5098444;28;20625;-68
2021/09/10 02:00:05;;;;;;;9.80;8.93;;;;;;;;;;5094613;28;20115;-73
2021/09/10 02:02:32;;;;;;;11.20;10.10;;;;;;;;;;5096719;28;20024;-68
2021/09/10 02:04:58;;;;;;;10.98;9.88;;;;;;;;;;5094219;28;20474;-76
2021/09/10 02:07:24;;;;;;;12.32;11.23;;;;;;;;;;5099536;28;20034;-76
2021/09/10 02:09:50;;;;;;;11.40;10.30;;;;;;;;;;5091990;28;20541;-75
2021/09/10 02:12:16;;;;;;;10.77;9.77;;;;;;;;;;5096622;28;20055;-76
2021/09/10 02:14:42;;;;;;;10.00;9.00;;;;;;;;;;5095180;28;20024;-76
2021/09/10 02:17:09;;;;;;;15.45;10.57;;;;;;;;;;5093152;28;20149;-75
2021/09/10 02:19:35;;;;;;;12.88;11.10;;;;;;;;;;5094096;28;20429;-76
2021/09/10 02:22:01;;;;;;;13.48;12.18;;;;;;;;;;5092266;28;20034;-76
2021/09/10 02:24:27;;;;;;;16.80;13.43;;;;;;;;;;5092887;28;20464;-76
2021/09/10 02:26:54;;;;;;;13.38;12.10;;;;;;;;;;5091539;28;20801;-76
2021/09/10 02:29:20;;;;;;;14.85;11.70;;;;;;;;;;5094166;28;20421;-78
2021/09/10 02:31:46;;;;;;;14.43;12.93;;;;;;;;;;5095098;28;20586;-76
2021/09/10 02:34:12;;;;;;;13.23;11.88;;;;;;;;;;5092970;28;20024;-68
2021/09/10 02:36:39;;;;;;;13.45;12.15;;;;;;;;;;5093447;28;20356;-68
2021/09/10 02:39:06;;;;;;;15.52;12.38;;;;;;;;;;5088432;28;20607;-69
2021/09/10 02:41:33;;;;;;;12.90;11.60;;;;;;;;;;5094451;28;20036;-68
2021/09/10 02:43:59;;;;;;;11.38;10.23;;;;;;;;;;5091883;28;20756;-77
2021/09/10 02:46:25;;;;;;;11.63;10.52;;;;;;;;;;5092077;28;20031;-73
2021/09/10 02:48:51;;;;;;;12.93;10.23;;;;;;;;;;5090025;28;20036;-69
2021/09/10 02:51:18;;;;;;;10.73;9.50;;;;;;;;;;5091529;28;20012;-75
2021/09/10 02:53:44;;;;;;;11.52;10.43;;;;;;;;;;5090423;28;20024;-70
2021/09/10 02:56:10;;;;;;;13.20;11.27;;;;;;;;;;5092932;28;20350;-77
2021/09/10 02:58:36;;;;;;;12.93;11.73;;;;;;;;;;5089509;28;20054;-68
2021/09/10 03:01:03;;;;;;;13.02;11.73;;;;;;;;;;5087411;28;20047;-73
2021/09/10 03:03:29;;;;;;;12.18;11.05;;;;;;;;;;5088153;28;20034;-68
2021/09/10 03:05:55;;;;;;;13.32;12.13;;;;;;;;;;5085839;28;20032;-67
2021/09/10 03:08:22;;;;;;;13.18;11.70;;;;;;;;;;5090685;28;20031;-72
2021/09/10 03:10:48;;;;;;;13.63;11.85;;;;;;;;;;5087136;28;20123;-76
2021/09/10 03:13:14;;;;;;;12.65;11.45;;;;;;;;;;5088494;28;20099;-67
2021/09/10 03:15:40;;;;;;;12.73;11.45;;;;;;;;;;5087924;28;20035;-68
2021/09/10 03:18:06;;;;;;;12.18;10.98;;;;;;;;;;5085548;28;20028;-71
2021/09/10 03:20:33;;;;;;;11.40;9.40;;;;;;;;;;5087382;28;20040;-68
2021/09/10 03:22:59;;;;;;;9.93;8.55;;;;;;;;;;5083974;28;20039;-68
2021/09/10 03:25:25;;;;;;;10.73;9.48;;;;;;;;;;5084802;28;20031;-69
2021/09/10 03:27:51;;;;;;;11.38;9.13;;;;;;;;;;5086277;28;20032;-67
2021/09/10 03:30:19;;;;;;;11.02;9.90;;;;;;;;;;5088532;28;20032;-71
2021/09/10 03:32:45;;;;;;;9.98;9.00;;;;;;;;;;5082575;28;20070;-77
2021/09/10 03:35:11;;;;;;;11.88;8.85;;;;;;;;;;5087302;28;20027;-67
2021/09/10 03:37:37;;;;;;;8.55;7.75;;;;;;;;;;5086502;28;20027;-68
2021/09/10 03:40:04;;;;;;;8.95;8.10;;;;;;;;;;5083455;28;20043;-68
2021/09/10 03:42:30;;;;;;;9.93;8.88;;;;;;;;;;5087633;28;20028;-68
2021/09/10 03:44:57;;;;;;;11.32;9.45;;;;;;;;;;5087382;28;20482;-69
2021/09/10 03:47:23;;;;;;;9.48;8.57;;;;;;;;;;5085932;28;20471;-69
2021/09/10 03:49:49;;;;;;;9.15;8.35;;;;;;;;;;5085510;28;20039;-73
2021/09/10 03:52:15;;;;;;;10.50;9.40;;;;;;;;;;5087089;28;20039;-69
2021/09/10 03:54:41;;;;;;;9.27;8.48;;;;;;;;;;5089415;28;20031;-68
2021/09/10 03:57:07;;;;;;;9.70;8.68;;;;;;;;;;5074482;28;20159;-72
2021/09/10 03:59:33;;;;;;;9.27;7.88;;;;;;;;;;5091042;28;20494;-67
2021/09/10 04:02:00;;;;;;;8.18;7.47;;;;;;;;;;5087493;28;20110;-68
2021/09/10 04:04:26;;;;;;;9.98;7.85;;;;;;;;;;5095358;28;20040;-73
2021/09/10 04:06:52;;;;;;;9.98;8.20;;;;;;;;;;5088949;28;20027;-69
2021/09/10 04:09:18;;;;;;;9.52;8.63;;;;;;;;;;5092943;28;20030;-68
2021/09/10 04:11:44;;;;;;;8.93;8.13;;;;;;;;;;5090182;28;20052;-72
2021/09/10 04:14:11;;;;;;;10.02;9.13;;;;;;;;;;5090184;28;20032;-68
2021/09/10 04:16:37;;;;;;;9.63;8.65;;;;;;;;;;5092384;28;20365;-72
2021/09/10 04:19:03;;;;;;;10.55;9.52;;;;;;;;;;5090247;28;20204;-77
2021/09/10 04:21:29;;;;;;;9.60;8.70;;;;;;;;;;5091614;28;20127;-77
2021/09/10 04:23:56;;;;;;;9.80;8.80;;;;;;;;;;5089611;28;20028;-76
2021/09/10 04:26:22;;;;;;;9.82;8.52;;;;;;;;;;5089947;28;20050;-77
2021/09/10 04:28:49;;;;;;;9.48;8.48;;;;;;;;;;5087904;28;20016;-76
2021/09/10 04:31:15;;;;;;;9.52;8.57;;;;;;;;;;5089813;28;20032;-76
2021/09/10 04:33:41;;;;;;;9.52;8.57;;;;;;;;;;5092192;28;20032;-78
2021/09/10 04:36:08;;;;;;;9.35;8.48;;;;;;;;;;5094654;28;20024;-75
2021/09/10 04:38:34;;;;;;;9.07;8.13;;;;;;;;;;5087577;28;20084;-76
2021/09/10 04:41:00;;;;;;;8.07;7.28;;;;;;;;;;5091611;28;20532;-76
2021/09/10 04:43:26;;;;;;;8.60;7.60;;;;;;;;;;5089885;28;20034;-76
2021/09/10 04:45:52;;;;;;;8.60;7.78;;;;;;;;;;5091770;28;20032;-72
2021/09/10 04:48:18;;;;;;;7.97;7.28;;;;;;;;;;5085577;28;20024;-77
2021/09/10 04:50:45;;;;;;;7.68;6.90;;;;;;;;;;5090035;28;20031;-68
2021/09/10 04:53:11;;;;;;;9.43;7.45;;;;;;;;;;5083034;28;20498;-73
2021/09/10 04:55:37;;;;;;;7.72;7.00;;;;;;;;;;5099499;27;20076;-69
2021/09/10 04:58:03;;;;;;;7.95;7.15;;;;;;;;;;5091646;28;20232;-74
2021/09/10 05:00:29;;;;;;;8.10;7.35;;;;;;;;;;5096219;28;20088;-75
2021/09/10 05:02:55;;;;;;;9.13;7.40;;;;;;;;;;5090024;28;20020;-68
2021/09/10 05:05:22;;;;;;;7.60;6.88;;;;;;;;;;5086693;28;20276;-68
2021/09/10 05:07:48;;;;;;;8.15;7.35;;;;;;;;;;5089869;28;20032;-72
2021/09/10 05:10:14;;;;;;;7.63;6.90;;;;;;;;;;5087113;28;20043;-74
2021/09/10 05:12:40;;;;;;;8.35;7.57;;;;;;;;;;5091895;28;20031;-70
2021/09/10 05:15:07;;;;;;;7.53;6.82;;;;;;;;;;5089601;28;20077;-68
2021/09/10 05:17:33;;;;;;;8.15;7.40;;;;;;;;;;5090557;28;20899;-69
2021/09/10 05:20:00;;;;;;;8.10;7.30;;;;;;;;;;5086669;28;20392;-69
2021/09/10 05:22:27;;;;;;;9.77;7.40;;;;;;;;;;5085102;28;20031;-74
2021/09/10 05:24:53;;;;;;;8.70;7.85;;;;;;;;;;5089516;28;20027;-71
2021/09/10 05:27:19;;;;;;;9.68;7.05;;;;;;;;;;5089546;28;20020;-75
2021/09/10 05:29:45;;;;;;;7.53;6.82;;;;;;;;;;5089692;28;20030;-71
2021/09/10 05:32:11;;;;;;;7.53;6.82;;;;;;;;;;5090792;28;20019;-73
2021/09/10 05:34:37;;;;;;;8.32;6.72;;;;;;;;;;5092470;28;20080;-69
2021/09/10 05:37:05;;;;;;;10.05;7.75;;;;;;;;;;5095161;28;20028;-74
2021/09/10 05:39:31;;;;;;;8.00;7.20;;;;;;;;;;5089677;28;20040;-74
2021/09/10 05:41:57;;;;;;;11.05;7.40;;;;;;;;;;5093003;27;20016;-72
2021/09/10 05:44:23;;;;;;;10.48;8.15;;;;;;;;;;5093730;28;20115;-74
2021/09/10 05:46:49;;;;;;;11.10;8.70;;;;;;;;;;5088867;28;20058;-75
2021/09/10 05:49:16;;;;;;;9.13;8.25;;;;;;;;;;5091468;28;20015;-74
2021/09/10 05:51:42;;;;;;;8.27;6.90;;;;;;;;;;5088750;28;20036;-72
2021/09/10 05:54:08;;;;;;;8.23;7.35;;;;;;;;;;5093976;28;20027;-73
2021/09/10 05:56:35;;;;;;;7.50;6.70;;;;;;;;;;5087877;28;20087;-72
2021/09/10 05:59:01;;;;;;;7.78;6.80;;;;;;;;;;5092299;28;20023;-76
2021/09/10 06:01:27;;;;;;;7.15;6.28;;;;;;;;;;5056538;28;20032;-75
2021/09/10 06:03:53;;;;;;;7.70;6.72;;;;;;;;;;5091860;28;20028;-71
2021/09/10 06:06:19;;;;;;;7.20;6.50;;;;;;;;;;5092477;28;20031;-74
2021/09/10 06:08:46;;;;;;;7.63;6.82;;;;;;;;;;5087518;28;20057;-74
2021/09/10 06:11:12;;;;;;;8.68;6.72;;;;;;;;;;5088438;28;20764;-75
2021/09/10 06:13:38;;;;;;;7.55;6.85;;;;;;;;;;5088983;28;20020;-72
2021/09/10 06:16:04;;;;;;;7.90;7.13;;;;;;;;;;5093426;28;20588;-74
2021/09/10 06:18:31;;;;;;;8.07;6.82;;;;;;;;;;5085252;28;20525;-72
2021/09/10 06:20:57;;;;;;;7.25;6.55;;;;;;;;;;5091083;28;20028;-72
2021/09/10 06:23:24;;;;;;;9.15;6.63;;;;;;;;;;5085084;28;20089;-74
2021/09/10 06:25:50;;;;;;;8.43;7.55;;;;;;;;;;5086874;28;20503;-76
2021/09/10 06:28:16;;;;;;;9.90;8.90;;;;;;;;;;5088522;28;20028;-75
2021/09/10 06:30:42;;;;;;;10.10;8.32;;;;;;;;;;5089539;28;20076;-72
2021/09/10 06:33:08;;;;;;;10.35;8.52;;;;;;;;;;5081005;28;20801;-75
2021/09/10 06:35:35;;;;;;;10.73;8.68;;;;;;;;;;5090455;28;20027;-71
2021/09/10 06:38:01;;;;;;;9.48;7.85;;;;;;;;;;5084247;28;20469;-75
2021/09/10 06:40:27;;;;;;;7.85;7.05;;;;;;;;;;5089815;28;20039;-78
2021/09/10 06:42:54;;;;;;;9.13;7.60;;;;;;;;;;5086137;28;20031;-73
2021/09/10 06:45:22;;;;;;;8.15;7.38;;;;;;;;;;5087831;28;20027;-76
2021/09/10 06:47:48;;;;;;;8.55;7.55;;;;;;;;;;5086503;28;20077;-71
2021/09/10 06:50:15;;;;;;;11.50;8.57;;;;;;;;;;5088867;28;20036;-68
2021/09/10 06:52:42;;;;;;;9.95;8.38;;;;;;;;;;5087442;28;20035;-73
2021/09/10 06:55:09;;;;;;;9.07;8.13;;;;;;;;;;5082770;28;20032;-75
2021/09/10 06:57:36;;;;;;;21.45;12.70;;;;;;;;;;5086367;28;20030;-76
2021/09/10 07:00:03;;;;;;;18.05;13.32;;;;;;;;;;5085694;28;20053;-72
2021/09/10 07:02:30;;;;;;;23.80;15.38;;;;;;;;;;5090188;28;20062;-73
2021/09/10 07:04:56;;;;;;;22.33;15.00;;;;;;;;;;5083802;28;20020;-76
2021/09/10 07:07:22;;;;;;;20.27;15.00;;;;;;;;;;5070797;28;20579;-75
2021/09/10 07:09:48;;;;;;;23.88;16.73;;;;;;;;;;5067249;28;20059;-76
2021/09/10 07:12:14;;;;;;;23.60;16.17;;;;;;;;;;5086525;28;20104;-69
2021/09/10 07:14:41;;;;;;;25.20;15.43;;;;;;;;;;5085512;28;20682;-73
2021/09/10 07:17:07;;;;;;;22.88;16.90;;;;;;;;;;5085981;28;20066;-73
2021/09/10 07:19:33;;;;;;;27.13;18.33;;;;;;;;;;5088557;28;20551;-76
2021/09/10 07:21:59;;;;;;;23.25;15.60;;;;;;;;;;5084485;28;20032;-75
2021/09/10 07:24:26;;;;;;;22.38;15.05;;;;;;;;;;5087481;28;20055;-76
2021/09/10 07:26:52;;;;;;;20.13;13.55;;;;;;;;;;5087716;28;20023;-76
2021/09/10 07:29:22;;;;;;;15.13;12.65;;;;;;;;;;5087414;28;20032;-72
2021/09/10 07:31:48;;;;;;;19.45;11.35;;;;;;;;;;5082185;28;20023;-75
2021/09/10 07:34:15;;;;;;;19.35;10.02;;;;;;;;;;5086831;28;20060;-74
2021/09/10 07:36:41;;;;;;;15.02;10.23;;;;;;;;;;5085317;28;20058;-72
2021/09/10 07:39:07;;;;;;;10.25;9.20;;;;;;;;;;5089254;28;20023;-76
2021/09/10 07:41:33;;;;;;;11.13;10.02;;;;;;;;;;5080245;28;20528;-77
2021/09/10 07:44:00;;;;;;;9.95;8.93;;;;;;;;;;5090202;28;20023;-72
2021/09/10 07:46:26;;;;;;;12.50;9.00;;;;;;;;;;5084630;28;20040;-77
2021/09/10 07:48:52;;;;;;;10.73;9.20;;;;;;;;;;5085224;28;20271;-77
2021/09/10 07:51:18;;;;;;;13.63;8.88;;;;;;;;;;5101861;27;20032;-72
2021/09/10 07:53:45;;;;;;;10.82;8.95;;;;;;;;;;5097356;28;20028;-80
2021/09/10 07:56:11;;;;;;;9.70;8.70;;;;;;;;;;5088847;28;20031;-76
2021/09/10 07:58:37;;;;;;;9.00;8.10;;;;;;;;;;5089110;28;20038;-76
2021/09/10 08:01:03;;;;;;;8.90;8.10;;;;;;;;;;5084781;28;20357;-74
2021/09/10 08:03:31;;;;;;;8.90;7.70;;;;;;;;;;5085275;28;20565;-75
2021/09/10 08:05:57;;;;;;;12.95;9.45;;;;;;;;;;5087501;28;20032;-75
2021/09/10 08:08:23;;;;;;;11.48;9.57;;;;;;;;;;5084898;28;20028;-70
2021/09/10 08:10:50;;;;;;;43.90;28.70;;;;;;;;;;5086298;28;20187;-75
2021/09/10 08:13:16;;;;;;;103.45;60.10;;;;;;;;;;5085889;28;20161;-74
2021/09/10 08:15:42;;;;;;;82.82;51.45;;;;;;;;;;5082606;28;20053;-75
2021/09/10 08:18:09;;;;;;;38.40;24.73;;;;;;;;;;5085498;28;20066;-76
2021/09/10 08:20:35;;;;;;;25.23;16.88;;;;;;;;;;5088433;28;20063;-76
2021/09/10 08:23:01;;;;;;;16.90;12.73;;;;;;;;;;5085445;28;20051;-74
2021/09/10 08:25:27;;;;;;;17.42;13.00;;;;;;;;;;5086982;28;20454;-75
2021/09/10 08:27:53;;;;;;;16.20;11.15;;;;;;;;;;5066359;28;20492;-74
2021/09/10 08:30:19;;;;;;;12.10;9.05;;;;;;;;;;5085042;28;20496;-68
2021/09/10 08:32:46;;;;;;;17.00;11.50;;;;;;;;;;5084451;28;20032;-74
2021/09/10 08:35:12;;;;;;;22.23;12.00;;;;;;;;;;5087455;28;20493;-75
2021/09/10 08:37:38;;;;;;;20.35;12.35;;;;;;;;;;5084040;28;20631;-75
2021/09/10 08:40:05;;;;;;;14.20;11.68;;;;;;;;;;5085307;28;20920;-74
2021/09/10 08:42:31;;;;;;;12.82;10.52;;;;;;;;;;5086616;28;20049;-74
2021/09/10 08:44:58;;;;;;;14.68;11.07;;;;;;;;;;5088789;28;20476;-74
2021/09/10 08:47:25;;;;;;;14.30;10.35;;;;;;;;;;5090908;28;20020;-74
2021/09/10 08:49:52;;;;;;;16.40;10.80;;;;;;;;;;5088173;28;20181;-74
2021/09/10 08:52:18;;;;;;;15.13;11.57;;;;;;;;;;5093129;28;20024;-69
2021/09/10 08:54:44;;;;;;;20.70;13.82;;;;;;;;;;5088119;28;20028;-73
2021/09/10 08:57:11;;;;;;;25.73;16.60;;;;;;;;;;5072577;28;20028;-74
2021/09/10 08:59:37;;;;;;;24.27;17.20;;;;;;;;;;5087442;28;20435;-74
2021/09/10 09:02:03;;;;;;;20.77;17.08;;;;;;;;;;5087469;28;20050;-72
2021/09/10 09:04:31;;;;;;;28.98;18.80;;;;;;;;;;5072985;28;20418;-74
2021/09/10 09:06:57;;;;;;;19.23;16.02;;;;;;;;;;5093037;28;20024;-69
2021/09/10 09:09:41;;;;;;;27.92;17.42;;;;;;;;;;5084962;28;20468;-74
2021/09/10 09:12:14;;;;;;;29.35;17.83;;;;;;;;;;5091509;28;20260;-74
2021/09/10 09:14:55;;;;;;;21.70;16.13;;;;;;;;;;5082427;28;20031;-75
2021/09/10 09:17:35;;;;;;;29.75;17.20;;;;;;;;;;5088727;28;20031;-74
2021/09/10 09:20:18;;;;;;;25.17;17.08;;;;;;;;;;5089324;28;20489;-74
2021/09/10 09:22:52;;;;;;;25.58;15.25;;;;;;;;;;5086185;28;20016;-74
2021/09/10 09:25:18;;;;;;;18.92;14.02;;;;;;;;;;5089162;28;20039;-72
2021/09/10 09:27:44;;;;;;;18.10;12.68;;;;;;;;;;5088085;28;20325;-76
2021/09/10 09:30:10;;;;;;;15.00;9.20;;;;;;;;;;5088387;28;20112;-74
2021/09/10 09:32:49;;;;;;;10.23;7.50;;;;;;;;;;5085432;28;20050;-74
2021/09/10 09:35:18;;;;;;;17.55;9.15;;;;;;;;;;5090134;28;20031;-70
2021/09/10 09:37:44;;;;;;;9.43;7.60;;;;;;;;;;5084035;28;20035;-73
2021/09/10 09:40:11;;;;;;;12.25;7.65;;;;;;;;;;5088305;28;20044;-72
2021/09/10 09:42:37;;;;;;;10.15;6.15;;;;;;;;;;5089030;28;20546;-73
2021/09/10 09:45:10;;;;;;;8.68;5.90;;;;;;;;;;5088385;28;20078;-74
2021/09/10 09:47:36;;;;;;;12.40;5.55;;;;;;;;;;5085244;28;20020;-74
2021/09/10 09:50:07;;;;;;;8.15;5.00;;;;;;;;;;5088280;28;20062;-74
2021/09/10 09:52:33;;;;;;;8.85;5.15;;;;;;;;;;5091313;28;20503;-74
2021/09/10 09:55:00;;;;;;;9.82;5.65;;;;;;;;;;5087355;28;20024;-75
2021/09/10 09:57:27;;;;;;;7.15;5.40;;;;;;;;;;5087851;28;20032;-75
2021/09/10 09:59:54;;;;;;;7.15;5.32;;;;;;;;;;5074365;28;20412;-74
2021/09/10 10:02:21;;;;;;;8.43;4.60;;;;;;;;;;5089165;28;20037;-70
2021/09/10 10:04:47;;;;;;;8.65;5.03;;;;;;;;;;5090675;28;20315;-75
2021/09/10 10:07:13;;;;;;;9.23;6.13;;;;;;;;;;5086485;28;20057;-75
2021/09/10 10:09:41;;;;;;;7.85;6.47;;;;;;;;;;5090867;28;20077;-71
2021/09/10 10:12:08;;;;;;;8.00;5.97;;;;;;;;;;5082476;28;20687;-73
2021/09/10 10:14:45;;;;;;;8.90;6.47;;;;;;;;;;5087676;28;20059;-74
2021/09/10 10:17:31;;;;;;;9.90;6.82;;;;;;;;;;5085632;28;20085;-75
2021/09/10 10:19:58;;;;;;;8.95;6.75;;;;;;;;;;5086340;28;20031;-75
2021/09/10 10:22:52;;;;;;;7.90;6.88;;;;;;;;;;5085434;28;20059;-74
2021/09/10 10:25:18;;;;;;;10.10;7.22;;;;;;;;;;5088688;28;20067;-69
2021/09/10 10:27:46;;;;;;;8.35;6.72;;;;;;;;;;5084297;28;20020;-74
2021/09/10 10:30:18;;;;;;;8.18;7.38;;;;;;;;;;5083142;28;20028;-75
2021/09/10 10:32:51;;;;;;;10.60;7.35;;;;;;;;;;5086424;28;20024;-76
2021/09/10 10:35:29;;;;;;;9.13;7.78;;;;;;;;;;5087687;28;20039;-75
2021/09/10 10:38:09;;;;;;;8.75;7.95;;;;;;;;;;5084981;28;20225;-73
2021/09/10 10:40:35;;;;;;;9.77;7.20;;;;;;;;;;5087552;28;20040;-76
2021/09/10 10:43:03;;;;;;;8.30;7.50;;;;;;;;;;5083898;28;20028;-76
2021/09/10 10:45:55;;;;;;;8.20;7.40;;;;;;;;;;5085430;28;20685;-75
2021/09/10 10:48:33;;;;;;;11.13;7.65;;;;;;;;;;5063389;28;20028;-73
2021/09/10 10:51:04;;;;;;;7.75;7.03;;;;;;;;;;5087895;28;20047;-73
2021/09/10 10:53:46;;;;;;;8.50;7.60;;;;;;;;;;5088642;28;20028;-74
2021/09/10 10:56:12;;;;;;;;;;;;;;;;;;5089090;28;20027;-74
2021/09/10 10:58:39;;;;;;;9.98;7.65;;;;;;;;;;5085019;28;20006;-75
2021/09/10 11:01:05;;;;;;;8.60;7.72;;;;;;;;;;5087753;28;20031;-74
2021/09/10 11:03:32;;;;;;;7.85;7.15;;;;;;;;;;5084946;28;20130;-73
2021/09/10 11:05:58;;;;;;;9.10;7.78;;;;;;;;;;5091183;28;20024;-74
2021/09/10 11:08:39;;;;;;;9.40;8.18;;;;;;;;;;5087695;28;20023;-70
2021/09/10 11:11:05;;;;;;;9.18;7.57;;;;;;;;;;5088476;28;20052;-70
2021/09/10 11:13:32;;;;;;;9.30;7.75;;;;;;;;;;5086261;28;20077;-71
2021/09/10 11:16:00;;;;;;;12.00;7.85;;;;;;;;;;5091611;28;20019;-73
2021/09/10 11:18:26;;;;;;;8.68;7.43;;;;;;;;;;5088084;28;20030;-73
2021/09/10 11:20:54;;;;;;;9.05;8.23;;;;;;;;;;5088241;28;20032;-73
2021/09/10 11:23:23;;;;;;;8.88;7.80;;;;;;;;;;5092004;28;20034;-74
2021/09/10 11:25:50;;;;;;;8.85;7.72;;;;;;;;;;5089773;28;20399;-74
2021/09/10 11:28:17;;;;;;;8.75;7.95;;;;;;;;;;5089469;28;20027;-72
2021/09/10 11:30:43;;;;;;;10.10;8.00;;;;;;;;;;5090543;28;20026;-71
2021/09/10 11:33:10;;;;;;;8.52;7.63;;;;;;;;;;5088134;28;20028;-70
2021/09/10 11:35:38;;;;;;;8.82;7.93;;;;;;;;;;5101642;27;20765;-70
2021/09/10 11:38:05;;;;;;;9.07;7.85;;;;;;;;;;5087947;28;20116;-73
2021/09/10 11:40:32;;;;;;;9.60;7.97;;;;;;;;;;5092096;28;20044;-69
2021/09/10 11:43:10;;;;;;;8.20;7.40;;;;;;;;;;5087519;28;20063;-72
2021/09/10 11:45:38;;;;;;;13.85;8.32;;;;;;;;;;5090385;28;20024;-69
2021/09/10 11:48:08;;;;;;;9.23;8.18;;;;;;;;;;5087991;28;20020;-73
2021/09/10 11:50:44;;;;;;;9.30;8.35;;;;;;;;;;5091731;28;20032;-68
2021/09/10 11:53:14;;;;;;;8.23;7.43;;;;;;;;;;5065422;28;20020;-74
2021/09/10 11:55:50;;;;;;;8.77;7.50;;;;;;;;;;5087472;28;20026;-71
2021/09/10 11:58:16;;;;;;;9.32;8.35;;;;;;;;;;5089926;28;20042;-69
2021/09/10 12:00:43;;;;;;;11.15;7.75;;;;;;;;;;5092234;28;20036;-69
2021/09/10 12:03:09;;;;;;;8.77;7.40;;;;;;;;;;5087430;28;20572;-72
2021/09/10 12:05:35;;;;;;;8.65;7.75;;;;;;;;;;5088667;28;20426;-69
2021/09/10 12:08:01;;;;;;;8.75;7.45;;;;;;;;;;5086818;28;20011;-69
2021/09/10 12:10:31;;;;;;;8.90;6.43;;;;;;;;;;5091289;28;20044;-69
2021/09/10 12:13:17;;;;;;;6.53;5.93;;;;;;;;;;5086252;28;20035;-72
2021/09/10 12:15:44;;;;;;;7.88;6.63;;;;;;;;;;5093595;28;20032;-73
2021/09/10 12:18:14;;;;;;;7.93;6.63;;;;;;;;;;5090994;28;20023;-69
2021/09/10 12:20:40;;;;;;;9.25;6.65;;;;;;;;;;5092975;28;20039;-71
2021/09/10 12:23:07;;;;;;;8.63;6.95;;;;;;;;;;5091512;28;20024;-69
2021/09/10 12:25:33;;;;;;;7.20;6.50;;;;;;;;;;5092994;28;20039;-73
2021/09/10 12:28:03;;;;;;;7.22;6.57;;;;;;;;;;5089363;28;20335;-71
2021/09/10 12:30:30;;;;;;;7.70;6.90;;;;;;;;;;5094172;28;20031;-69
2021/09/10 12:32:57;;;;;;;7.72;6.60;;;;;;;;;;5089985;28;20240;-70
2021/09/10 12:35:23;;;;;;;9.13;6.93;;;;;;;;;;5093918;28;20040;-72
2021/09/10 12:38:08;;;;;;;13.90;7.40;;;;;;;;;;5086441;28;20024;-74
2021/09/10 12:40:37;;;;;;;8.13;6.72;;;;;;;;;;5091965;28;20040;-69
2021/09/10 12:43:04;;;;;;;7.43;6.55;;;;;;;;;;5088721;28;20079;-69
2021/09/10 12:45:30;;;;;;;7.20;6.50;;;;;;;;;;5091935;28;20092;-69
2021/09/10 12:47:57;;;;;;;7.45;6.68;;;;;;;;;;5094808;27;20190;-69
2021/09/10 12:50:23;;;;;;;6.50;5.90;;;;;;;;;;5091831;28;20402;-70
2021/09/10 12:52:50;;;;;;;7.40;6.70;;;;;;;;;;5090381;28;20260;-70
2021/09/10 12:55:16;;;;;;;7.15;6.45;;;;;;;;;;5093346;28;20032;-69
2021/09/10 12:57:42;;;;;;;7.95;6.40;;;;;;;;;;5092473;28;20020;-75
2021/09/10 13:00:10;;;;;;;9.63;6.47;;;;;;;;;;5089616;28;20752;-75
2021/09/10 13:02:36;;;;;;;7.10;6.47;;;;;;;;;;5090102;28;20028;-74
2021/09/10 13:05:03;;;;;;;7.20;6.50;;;;;;;;;;5091218;28;20035;-70
2021/09/10 13:07:29;;;;;;;6.32;5.75;;;;;;;;;;5090065;28;20024;-77
2021/09/10 13:09:55;;;;;;;7.32;6.38;;;;;;;;;;5088246;28;20031;-73
2021/09/10 13:12:21;;;;;;;8.25;6.47;;;;;;;;;;5090201;28;20764;-78
2021/09/10 13:14:48;;;;;;;6.82;6.00;;;;;;;;;;5088664;28;20482;-76
2021/09/10 13:17:21;;;;;;;6.82;5.95;;;;;;;;;;5090369;28;20031;-76
2021/09/10 13:19:47;;;;;;;8.30;7.47;;;;;;;;;;5089880;28;20032;-76
2021/09/10 13:22:14;;;;;;;8.10;6.50;;;;;;;;;;5090448;28;20106;-77
2021/09/10 13:24:43;;;;;;;8.18;6.22;;;;;;;;;;5091424;28;20032;-76
2021/09/10 13:27:13;;;;;;;11.55;7.18;;;;;;;;;;5089450;28;20024;-77
2021/09/10 13:29:40;;;;;;;7.10;6.40;;;;;;;;;;5091284;28;20084;-77
2021/09/10 13:32:07;;;;;;;9.23;6.82;;;;;;;;;;5093066;28;20024;-76
2021/09/10 13:34:33;;;;;;;11.25;6.85;;;;;;;;;;5089231;28;20048;-76
2021/09/10 13:36:59;;;;;;;7.90;6.95;;;;;;;;;;5090873;28;20035;-76
2021/09/10 13:39:25;;;;;;;7.22;6.63;;;;;;;;;;5092814;28;20024;-76
2021/09/10 13:41:53;;;;;;;7.95;7.22;;;;;;;;;;5090929;28;20157;-76
2021/09/10 13:44:20;;;;;;;7.85;7.15;;;;;;;;;;5092176;28;20500;-76
2021/09/10 13:46:46;;;;;;;8.10;7.30;;;;;;;;;;5086308;28;20035;-76
2021/09/10 13:49:13;;;;;;;8.68;7.07;;;;;;;;;;5093386;28;20360;-76
2021/09/10 13:51:39;;;;;;;10.45;7.00;;;;;;;;;;5087725;28;20031;-77
2021/09/10 13:54:05;;;;;;;7.45;6.75;;;;;;;;;;5093004;28;20020;-76
2021/09/10 13:56:31;;;;;;;8.55;6.78;;;;;;;;;;5088259;28;20035;-78
2021/09/10 13:58:57;;;;;;;7.55;6.80;;;;;;;;;;5092323;28;20039;-78
2021/09/10 14:01:24;;;;;;;8.13;7.32;;;;;;;;;;5087974;28;20040;-76
2021/09/10 14:03:50;;;;;;;9.27;7.78;;;;;;;;;;5088412;28;20103;-76
2021/09/10 14:06:16;;;;;;;8.98;6.70;;;;;;;;;;5092055;28;20130;-76
2021/09/10 14:08:43;;;;;;;8.57;7.72;;;;;;;;;;5088896;28;20047;-77
2021/09/10 14:11:09;;;;;;;9.73;7.70;;;;;;;;;;5087913;28;20480;-76
2021/09/10 14:13:36;;;;;;;8.60;7.70;;;;;;;;;;5088723;28;20778;-77
2021/09/10 14:16:02;;;;;;;8.30;7.43;;;;;;;;;;5077332;28;20023;-77
2021/09/10 14:18:28;;;;;;;8.13;7.40;;;;;;;;;;5088549;28;20029;-76
2021/09/10 14:20:54;;;;;;;8.38;7.53;;;;;;;;;;5092037;28;20040;-77
2021/09/10 14:23:21;;;;;;;7.32;6.63;;;;;;;;;;5090179;28;20467;-77
2021/09/10 14:25:49;;;;;;;8.85;7.93;;;;;;;;;;5088970;28;20116;-78
2021/09/10 14:28:15;;;;;;;7.85;7.05;;;;;;;;;;5075623;28;20123;-78
2021/09/10 14:30:41;;;;;;;10.27;7.38;;;;;;;;;;5088313;28;20020;-77
2021/09/10 14:33:07;;;;;;;7.97;7.18;;;;;;;;;;5088605;28;20108;-77